Time;durP1;ratioP1;P1;durP2;ratioP2;P2;SDS_P1;SDS_P2;PMS_P1;PMS_P2;Temp;Humidity;BMP_temperature;BMP_pressure;BME280_temperature;BME280_humidity;BME280_pressure;Samples;Min_cycle;Max_cycle;Signal;HPM_P1;HPM_P2
2023/11/14 00:00:32;;;;;;;6.90;4.90;;;;;;;6.36;100.00;99783.71;88429;281;138594;-74
2023/11/14 00:02:34;;;;;;;6.40;5.20;;;;;;;6.36;100.00;99781.77;88453;273;22527;-73
2023/11/14 00:04:38;;;;;;;5.30;4.80;;;;;;;6.35;100.00;99782.56;88540;273;136686;-72
2023/11/14 00:06:40;;;;;;;6.30;4.60;;;;;;;6.35;100.00;99781.05;88416;274;22537;-74
2023/11/14 00:08:42;;;;;;;8.60;5.30;;;;;;;6.35;100.00;99783.00;88505;274;137826;-73
2023/11/14 00:10:44;;;;;;;7.80;5.40;;;;;;;6.35;100.00;99778.73;88208;274;532638;-73
2023/11/14 00:12:46;;;;;;;5.10;4.40;;;;;;;6.34;100.00;99776.71;88567;280;137215;-73
2023/11/14 00:14:48;;;;;;;7.60;5.90;;;;;;;6.33;100.00;99784.36;88795;273;24014;-70
2023/11/14 00:16:50;;;;;;;13.10;5.40;;;;;;;6.33;100.00;99779.98;88422;280;138036;-74
2023/11/14 00:18:52;;;;;;;6.90;4.60;;;;;;;6.35;100.00;99775.23;88595;282;24061;-72
2023/11/14 00:20:57;;;;;;;4.90;3.90;;;;;;;6.24;100.00;99754.90;88470;278;137912;-72
2023/11/14 00:23:00;;;;;;;7.10;5.00;;;;;;;6.34;100.00;99769.83;88784;281;23484;-75
2023/11/14 00:25:02;;;;;;;6.90;5.90;;;;;;;6.32;100.00;99764.02;88482;282;136860;-73
2023/11/14 00:27:04;;;;;;;10.30;5.50;;;;;;;6.30;100.00;99763.93;88607;282;22523;-70
2023/11/14 00:29:07;;;;;;;8.70;5.90;;;;;;;6.29;100.00;99765.46;88402;278;136779;-74
2023/11/14 00:31:09;;;;;;;7.20;5.50;;;;;;;6.27;100.00;99756.66;88402;275;22524;-74
2023/11/14 00:33:11;;;;;;;9.60;6.70;;;;;;;6.25;100.00;99755.45;88365;274;136644;-74
2023/11/14 00:35:14;;;;;;;10.70;7.00;;;;;;;6.24;100.00;99758.00;88596;283;21532;-71
2023/11/14 00:37:17;;;;;;;11.90;5.90;;;;;;;6.24;100.00;99760.20;88858;275;139084;-73
2023/11/14 00:39:20;;;;;;;10.30;6.40;;;;;;;6.23;100.00;99758.92;88757;275;24632;-70
2023/11/14 00:41:22;;;;;;;8.00;6.20;;;;;;;6.23;100.00;99757.35;88384;283;138289;-71
2023/11/14 00:43:24;;;;;;;9.30;6.30;;;;;;;6.21;100.00;99757.47;88703;275;25128;-74
2023/11/14 00:45:28;;;;;;;15.20;6.50;;;;;;;6.17;100.00;99754.48;88328;279;137459;-74
2023/11/14 00:47:31;;;;;;;10.90;6.60;;;;;;;6.17;100.00;99753.75;88503;275;25112;-73
2023/11/14 00:49:33;;;;;;;10.20;6.80;;;;;;;6.19;100.00;99752.64;88564;274;138368;-73
2023/11/14 00:51:35;;;;;;;8.30;5.90;;;;;;;6.20;100.00;99753.41;88404;276;23809;-72
2023/11/14 00:53:37;;;;;;;9.60;6.30;;;;;;;6.18;100.00;99753.61;88399;282;138054;-72
2023/11/14 00:55:39;;;;;;;8.70;6.20;;;;;;;6.16;100.00;99751.54;88503;282;24398;-74
2023/11/14 00:57:41;;;;;;;11.40;7.20;;;;;;;6.14;100.00;99752.28;88420;278;136768;-74
2023/11/14 00:59:44;;;;;;;12.70;7.00;;;;;;;6.13;100.00;99747.65;88572;282;25175;-72
2023/11/14 01:01:45;;;;;;;10.40;7.00;;;;;;;6.14;100.00;99745.45;88380;282;138228;-73
2023/11/14 01:03:47;;;;;;;10.90;6.70;;;;;;;6.16;100.00;99744.39;88521;278;24055;-73
2023/11/14 01:05:52;;;;;;;15.70;6.80;;;;;;;6.18;100.00;99744.48;88502;275;136664;-73
2023/11/14 01:07:54;;;;;;;9.50;7.40;;;;;;;6.19;100.00;99739.61;88551;274;22547;-73
2023/11/14 01:09:56;;;;;;;9.80;6.60;;;;;;;6.19;100.00;99729.55;88399;282;136390;-71
2023/11/14 01:11:58;;;;;;;9.70;6.30;;;;;;;6.18;100.00;99730.49;88568;282;22676;-72
2023/11/14 01:14:01;;;;;;;6.60;5.90;;;;;;;6.17;100.00;99722.33;88519;282;137546;-76
2023/11/14 01:16:03;;;;;;;7.80;6.30;;;;;;;6.17;100.00;99720.45;88665;275;23950;-72
2023/11/14 01:18:05;;;;;;;9.50;6.50;;;;;;;6.16;100.00;99717.30;88490;282;25083;-72
2023/11/14 01:20:12;;;;;;;6.90;5.30;;;;;;;6.16;100.00;99709.95;88333;283;137991;-73
2023/11/14 01:22:14;;;;;;;6.00;5.20;;;;;;;6.17;100.00;99714.42;88684;274;22552;-71
2023/11/14 01:24:16;;;;;;;5.70;4.70;;;;;;;6.17;100.00;99727.15;88407;282;136967;-72
2023/11/14 01:26:20;;;;;;;7.10;5.70;;;;;;;6.14;100.00;99730.95;88512;282;22773;-74
2023/11/14 01:28:23;;;;;;;6.20;5.60;;;;;;;6.14;100.00;99733.66;88461;282;138199;-71
2023/11/14 01:30:25;;;;;;;5.70;4.80;;;;;;;6.12;100.00;99727.35;88587;274;22544;-69
2023/11/14 01:32:27;;;;;;;8.70;4.80;;;;;;;6.08;100.00;99721.26;88395;275;136522;-72
2023/11/14 01:34:29;;;;;;;7.60;5.80;;;;;;;5.97;100.00;99706.45;90191;274;24037;-73
2023/11/14 01:36:32;;;;;;;6.10;5.20;;;;;;;5.92;100.00;99711.77;88387;282;136970;-73
2023/11/14 01:38:34;;;;;;;7.00;6.30;;;;;;;5.93;100.00;99724.88;88398;282;22728;-73
2023/11/14 01:40:36;;;;;;;6.50;5.70;;;;;;;5.86;100.00;99717.54;88384;279;138855;-73
2023/11/14 01:42:39;;;;;;;5.50;4.70;;;;;;;5.83;100.00;99715.40;88576;280;22553;-73
2023/11/14 01:44:41;;;;;;;5.90;5.10;;;;;;;5.77;100.00;99703.23;88449;281;136828;-72
2023/11/14 01:46:44;;;;;;;6.70;5.30;;;;;;;5.69;100.00;99696.36;88508;281;22619;-74
2023/11/14 01:48:50;;;;;;;7.00;5.70;;;;;;;5.61;100.00;99699.63;88422;281;136122;-72
2023/11/14 01:50:52;;;;;;;5.70;5.20;;;;;;;5.56;100.00;99702.70;88545;275;25282;-71
2023/11/14 01:52:54;;;;;;;7.10;5.00;;;;;;;5.52;100.00;99709.31;88432;275;137078;-71
2023/11/14 01:54:57;;;;;;;6.30;5.20;;;;;;;5.41;100.00;99695.21;88636;281;22565;-76
2023/11/14 01:57:00;;;;;;;5.50;4.70;;;;;;;5.48;100.00;99707.52;88643;274;137579;-73
2023/11/14 01:59:02;;;;;;;5.30;4.60;;;;;;;5.45;100.00;99706.39;88520;278;22543;-73
2023/11/14 02:01:05;;;;;;;6.20;4.90;;;;;;;5.42;100.00;99706.45;88382;275;136157;-75
2023/11/14 02:03:10;;;;;;;5.80;5.20;;;;;;;5.37;100.00;99699.39;88478;279;24027;-76
2023/11/14 02:05:12;;;;;;;5.50;5.00;;;;;;;5.33;100.00;99704.42;88415;273;136486;-74
2023/11/14 02:07:14;;;;;;;5.60;4.90;;;;;;;5.32;100.00;99708.23;91453;282;22347;-74
2023/11/14 02:09:16;;;;;;;6.10;4.70;;;;;;;5.31;100.00;99703.69;89065;281;136315;-75
2023/11/14 02:11:19;;;;;;;7.10;5.00;;;;;;;5.31;100.00;99694.77;88648;281;24019;-75
2023/11/14 02:13:23;;;;;;;5.90;5.30;;;;;;;5.29;100.00;99694.79;88530;281;136835;-74
2023/11/14 02:15:24;;;;;;;6.10;5.50;;;;;;;5.25;100.00;99695.16;88562;281;24061;-74
2023/11/14 02:17:26;;;;;;;6.30;5.70;;;;;;;5.20;100.00;99690.45;88529;281;136947;-74
2023/11/14 02:19:31;;;;;;;7.10;5.60;;;;;;;5.13;100.00;99685.45;88400;275;25118;-72
2023/11/14 02:21:33;;;;;;;7.50;5.70;;;;;;;5.07;100.00;99682.23;88356;275;137683;-72
2023/11/14 02:23:39;;;;;;;6.00;5.00;;;;;;;5.05;100.00;99685.48;88520;274;25380;-72
2023/11/14 02:25:42;;;;;;;6.40;5.50;;;;;;;4.96;100.00;99674.76;88527;281;136516;-76
2023/11/14 02:27:44;;;;;;;7.90;6.20;;;;;;;5.03;100.00;99689.41;88548;273;22537;-72
2023/11/14 02:29:50;;;;;;;7.60;6.00;;;;;;;5.02;100.00;99690.33;88471;273;138396;-72
2023/11/14 02:31:52;;;;;;;5.20;4.70;;;;;;;4.99;100.00;99687.48;88509;278;22678;-72
2023/11/14 02:33:54;;;;;;;6.60;5.70;;;;;;;4.95;100.00;99681.92;88346;275;137793;-73
2023/11/14 02:35:56;;;;;;;6.70;5.30;;;;;;;4.91;100.00;99680.79;88424;275;25288;-72
2023/11/14 02:37:59;;;;;;;6.10;5.50;;;;;;;4.90;100.00;99677.53;88429;275;136164;-74
2023/11/14 02:40:04;;;;;;;6.60;5.40;;;;;;;4.87;100.00;99679.23;88544;275;22529;-72
2023/11/14 02:42:07;;;;;;;6.80;5.90;;;;;;;4.85;100.00;99677.77;88627;281;22530;-73
2023/11/14 02:44:09;;;;;;;11.60;5.60;;;;;;;4.83;100.00;99677.30;88546;277;136810;-73
2023/11/14 02:46:11;;;;;;;7.40;6.70;;;;;;;4.81;100.00;99679.96;88582;281;24052;-71
2023/11/14 02:48:14;;;;;;;8.60;6.00;;;;;;;4.77;100.00;99682.83;88358;282;136859;-71
2023/11/14 02:50:52;;;;;;;6.70;5.60;;;;;;;4.75;100.00;99688.23;88568;278;22545;-71
2023/11/14 02:52:55;;;;;;;6.80;6.10;;;;;;;4.72;100.00;99689.94;88365;282;136624;-72
2023/11/14 02:54:57;;;;;;;7.30;6.10;;;;;;;4.68;100.00;99686.92;88639;280;22527;-73
2023/11/14 02:57:00;;;;;;;6.30;5.80;;;;;;;4.66;100.00;99681.75;88352;280;136301;-73
2023/11/14 02:59:01;;;;;;;7.50;6.30;;;;;;;4.64;100.00;99677.89;88452;282;24018;-71
2023/11/14 03:01:03;;;;;;;7.70;6.70;;;;;;;4.63;100.00;99672.63;89142;274;136921;-71
2023/11/14 03:03:05;;;;;;;8.20;7.20;;;;;;;4.59;100.00;99667.38;90852;279;22793;-72
2023/11/14 03:05:07;;;;;;;9.40;7.00;;;;;;;4.58;100.00;99661.15;90742;282;136324;-72
2023/11/14 03:07:10;;;;;;;7.20;6.50;;;;;;;4.59;100.00;99665.66;89437;274;24021;-72
2023/11/14 03:09:13;;;;;;;9.20;6.70;;;;;;;4.60;100.00;99663.25;88463;273;136273;-73
2023/11/14 03:11:15;;;;;;;10.00;8.40;;;;;;;4.59;100.00;99667.57;88589;274;24036;-72
2023/11/14 03:13:18;;;;;;;8.10;6.80;;;;;;;4.56;100.00;99668.08;88424;281;137078;-70
2023/11/14 03:15:20;;;;;;;8.70;7.20;;;;;;;4.57;100.00;99675.86;88556;281;22537;-74
2023/11/14 03:17:22;;;;;;;10.10;7.60;;;;;;;4.52;100.00;99676.78;88242;276;136593;-75
2023/11/14 03:19:24;;;;;;;9.50;7.70;;;;;;;4.46;100.00;99679.13;88482;275;25214;-72
2023/11/14 03:21:26;;;;;;;8.90;7.30;;;;;;;4.41;100.00;99673.54;88401;281;136708;-72
2023/11/14 03:23:28;;;;;;;10.10;8.30;;;;;;;4.37;100.00;99672.85;88637;282;25122;-70
2023/11/14 03:25:30;;;;;;;9.00;8.10;;;;;;;4.34;100.00;99677.07;88455;282;136541;-73
2023/11/14 03:27:33;;;;;;;8.60;7.60;;;;;;;4.31;100.00;99675.98;88599;282;22537;-72
2023/11/14 03:29:35;;;;;;;9.60;7.70;;;;;;;4.28;100.00;99673.15;88381;282;137976;-71
2023/11/14 03:31:38;;;;;;;8.80;7.90;;;;;;;4.26;100.00;99674.63;88365;285;22757;-70
2023/11/14 03:33:40;;;;;;;9.10;8.00;;;;;;;4.24;100.00;99674.86;88476;282;136968;-73
2023/11/14 03:35:43;;;;;;;9.30;7.20;;;;;;;4.21;100.00;99677.55;88470;278;22548;-70
2023/11/14 03:37:45;;;;;;;7.90;7.10;;;;;;;4.19;100.00;99675.52;88538;282;138008;-69
2023/11/14 03:39:48;;;;;;;9.40;7.60;;;;;;;4.17;100.00;99676.26;88552;282;25140;-71
2023/11/14 03:41:51;;;;;;;8.50;7.60;;;;;;;4.13;100.00;99679.29;88528;274;136958;-72
2023/11/14 03:43:52;;;;;;;12.10;8.90;;;;;;;4.09;100.00;99675.16;88569;281;25140;-72
2023/11/14 03:45:54;;;;;;;8.90;7.50;;;;;;;4.05;100.00;99671.47;88429;281;136852;-72
2023/11/14 03:47:57;;;;;;;8.50;7.50;;;;;;;4.02;100.00;99673.27;88504;282;25086;-72
2023/11/14 03:50:03;;;;;;;11.20;9.40;;;;;;;3.97;100.00;99671.98;88379;282;136308;-72
2023/11/14 03:52:06;;;;;;;10.70;7.80;;;;;;;3.94;100.00;99670.09;88412;279;137179;-73
2023/11/14 03:54:08;;;;;;;12.20;9.20;;;;;;;3.91;100.00;99670.95;88588;282;25766;-73
2023/11/14 03:56:10;;;;;;;9.20;8.20;;;;;;;3.88;100.00;99663.27;88341;282;139223;-70
2023/11/14 03:58:12;;;;;;;11.20;8.80;;;;;;;3.86;100.00;99645.36;88450;282;22542;-72
2023/11/14 04:00:15;;;;;;;10.30;8.10;;;;;;;3.84;100.00;99634.02;88346;283;137802;-72
2023/11/14 04:02:17;;;;;;;10.10;8.80;;;;;;;3.83;100.00;99626.80;88602;282;22564;-74
2023/11/14 04:04:19;;;;;;;9.20;8.30;;;;;;;3.80;100.00;99620.41;88374;283;137123;-74
2023/11/14 04:06:21;;;;;;;11.70;9.20;;;;;;;3.77;100.00;99610.51;88561;282;22537;-75
2023/11/14 04:08:24;;;;;;;11.00;9.20;;;;;;;3.72;100.00;99608.73;88331;277;137360;-73
2023/11/14 04:10:27;;;;;;;11.70;9.70;;;;;;;3.69;100.00;99611.72;88595;281;22527;-73
2023/11/14 04:13:33;;;;;;;19.60;10.10;;;;;;;3.57;100.00;99610.27;86851;305;603851;-71
2023/11/14 04:15:35;;;;;;;12.30;9.90;;;;;;;3.52;100.00;99606.43;87846;287;24027;-71
2023/11/14 04:17:38;;;;;;;13.00;10.50;;;;;;;3.52;100.00;99608.05;87721;295;136650;-73
2023/11/14 04:19:40;;;;;;;11.40;10.20;;;;;;;3.48;100.00;99607.90;88406;287;22550;-73
2023/11/14 04:21:42;;;;;;;13.90;10.60;;;;;;;3.46;100.00;99605.10;88240;286;136577;-69
2023/11/14 04:23:45;;;;;;;13.90;10.20;;;;;;;3.48;100.00;99597.02;88344;286;24056;-70
2023/11/14 04:25:47;;;;;;;12.40;9.80;;;;;;;3.46;100.00;99597.20;88206;287;136250;-71
2023/11/14 04:27:49;;;;;;;13.80;10.40;;;;;;;3.45;100.00;99597.20;87968;286;538911;-70
2023/11/14 04:29:52;;;;;;;12.60;11.30;;;;;;;3.43;100.00;99594.39;88286;285;137972;-72
2023/11/14 04:31:54;;;;;;;11.90;10.00;;;;;;;3.42;100.00;99596.83;88364;285;22537;-70
2023/11/14 04:33:56;;;;;;;12.60;9.60;;;;;;;3.44;100.00;99591.33;88251;285;136311;-72
2023/11/14 04:35:59;;;;;;;13.70;11.10;;;;;;;3.42;100.00;99586.61;88503;276;25193;-72
2023/11/14 04:38:01;;;;;;;11.50;9.80;;;;;;;3.40;100.00;99585.59;88485;277;136446;-71
2023/11/14 04:40:05;;;;;;;11.20;10.00;;;;;;;3.38;100.00;99580.31;88256;277;136405;-71
2023/11/14 04:42:06;;;;;;;14.50;10.40;;;;;;;3.37;100.00;99577.98;88565;276;22524;-72
2023/11/14 04:44:11;;;;;;;13.10;10.50;;;;;;;3.34;100.00;99572.84;88339;284;136386;-71
2023/11/14 04:46:13;;;;;;;12.20;9.70;;;;;;;3.30;100.00;99577.26;88475;284;24058;-71
2023/11/14 04:48:16;;;;;;;12.20;10.00;;;;;;;3.28;100.00;99580.88;88391;276;137582;-69
2023/11/14 04:50:22;;;;;;;10.80;9.40;;;;;;;3.25;100.00;99581.65;88462;282;22545;-72
2023/11/14 04:52:24;;;;;;;10.10;8.40;;;;;;;3.22;100.00;99594.23;88430;283;136486;-70
2023/11/14 04:54:26;;;;;;;14.90;10.00;;;;;;;3.17;100.00;99589.50;88560;284;22540;-73
2023/11/14 04:56:29;;;;;;;11.80;9.50;;;;;;;3.14;100.00;99597.74;88308;284;136513;-73
2023/11/14 04:58:31;;;;;;;14.30;10.80;;;;;;;3.11;100.00;99597.50;88448;282;24036;-71
2023/11/14 05:00:37;;;;;;;12.70;10.20;;;;;;;3.07;100.00;99593.56;88397;283;136483;-71
2023/11/14 05:02:40;;;;;;;10.80;9.60;;;;;;;3.07;100.00;99592.52;88062;277;25168;-71
2023/11/14 05:04:45;;;;;;;11.20;9.60;;;;;;;3.07;100.00;99587.70;88075;276;136322;-69
2023/11/14 05:06:47;;;;;;;12.30;10.10;;;;;;;3.07;100.00;99593.34;88186;276;22639;-70
2023/11/14 05:08:51;;;;;;;13.60;9.90;;;;;;;3.07;100.00;99590.05;88260;276;136683;-70
2023/11/14 05:10:55;;;;;;;10.90;9.40;;;;;;;3.08;100.00;99588.53;88362;279;22564;-69
2023/11/14 05:12:56;;;;;;;14.30;10.10;;;;;;;3.07;100.00;99585.80;88167;276;136332;-67
2023/11/14 05:14:59;;;;;;;10.30;9.10;;;;;;;3.07;100.00;99590.55;88411;282;24022;-70
2023/11/14 05:17:01;;;;;;;13.40;9.90;;;;;;;3.06;100.00;99587.52;88115;282;136570;-71
2023/11/14 05:19:03;;;;;;;10.80;9.00;;;;;;;3.09;100.00;99592.69;88209;283;22921;-72
2023/11/14 05:21:05;;;;;;;12.40;8.90;;;;;;;3.12;100.00;99597.24;87977;276;136470;-72
2023/11/14 05:23:07;;;;;;;10.70;9.50;;;;;;;3.16;100.00;99592.85;88739;275;22530;-71
2023/11/14 05:25:09;;;;;;;17.60;10.30;;;;;;;3.17;100.00;99586.60;88258;283;136733;-71
2023/11/14 05:27:12;;;;;;;11.00;9.30;;;;;;;3.18;100.00;99580.47;88559;281;24263;-73
2023/11/14 05:29:14;;;;;;;11.40;9.00;;;;;;;3.18;100.00;99576.16;88228;275;136603;-72
2023/11/14 05:31:16;;;;;;;12.20;9.40;;;;;;;3.09;100.00;99555.63;88299;280;22624;-70
2023/11/14 05:33:18;;;;;;;9.80;8.70;;;;;;;3.18;100.00;99559.21;88103;277;139844;-72
2023/11/14 05:35:19;;;;;;;10.70;9.50;;;;;;;3.19;100.00;99555.80;88416;277;23498;-71
2023/11/14 05:37:21;;;;;;;10.60;8.90;;;;;;;3.20;100.00;99556.10;88238;274;136340;-71
2023/11/14 05:39:23;;;;;;;10.40;8.60;;;;;;;3.09;100.00;99536.95;88371;273;24014;-69
2023/11/14 05:41:26;;;;;;;10.60;9.50;;;;;;;3.20;100.00;99548.36;88386;271;136282;-68
2023/11/14 05:43:29;;;;;;;11.20;9.60;;;;;;;3.20;100.00;99546.41;88654;277;22526;-70
2023/11/14 05:45:32;;;;;;;13.50;10.70;;;;;;;3.21;100.00;99545.01;88658;273;137279;-72
2023/11/14 05:47:34;;;;;;;13.70;9.90;;;;;;;3.24;100.00;99549.46;88755;273;23397;-71
2023/11/14 05:49:36;;;;;;;12.60;10.30;;;;;;;3.27;100.00;99551.77;88415;277;137740;-68
2023/11/14 05:51:38;;;;;;;12.20;10.80;;;;;;;3.29;100.00;99560.30;88416;272;23400;-77
2023/11/14 05:53:42;;;;;;;13.50;10.60;;;;;;;3.30;100.00;99552.73;88662;277;136484;-74
2023/11/14 05:55:44;;;;;;;12.40;10.70;;;;;;;3.29;100.00;99551.38;88532;279;24113;-74
2023/11/14 05:57:46;;;;;;;13.00;9.40;;;;;;;3.30;100.00;99560.57;88264;278;136621;-74
2023/11/14 05:59:50;;;;;;;12.10;9.80;;;;;;;3.33;100.00;99563.08;88421;273;22544;-73
2023/11/14 06:01:53;;;;;;;13.50;10.60;;;;;;;3.38;100.00;99562.27;88746;277;136407;-76
2023/11/14 06:03:55;;;;;;;15.80;10.40;;;;;;;3.41;100.00;99557.21;88596;273;23550;-75
2023/11/14 06:05:57;;;;;;;12.80;9.80;;;;;;;3.46;100.00;99553.63;88553;280;136385;-72
2023/11/14 06:08:01;;;;;;;12.20;10.60;;;;;;;3.49;100.00;99545.40;89082;273;22520;-74
2023/11/14 06:10:04;;;;;;;11.80;9.50;;;;;;;3.54;100.00;99544.71;88517;280;22536;-73
2023/11/14 06:12:06;;;;;;;11.20;9.20;;;;;;;3.61;100.00;99535.11;88376;277;137756;-74
2023/11/14 06:14:09;;;;;;;9.90;8.60;;;;;;;3.64;100.00;99529.60;88569;273;22523;-74
2023/11/14 06:16:12;;;;;;;10.20;9.10;;;;;;;3.68;100.00;99534.69;91137;281;136943;-74
2023/11/14 06:18:14;;;;;;;11.00;8.40;;;;;;;3.68;100.00;99533.77;90436;281;22663;-70
2023/11/14 06:20:17;;;;;;;11.40;8.70;;;;;;;3.61;100.00;99523.41;88345;277;136703;-73
2023/11/14 06:22:18;;;;;;;9.20;8.20;;;;;;;3.70;100.00;99539.04;88879;276;22541;-72
2023/11/14 06:24:20;;;;;;;11.40;9.40;;;;;;;3.72;100.00;99542.73;88308;277;137761;-72
2023/11/14 06:26:23;;;;;;;14.10;9.50;;;;;;;3.72;100.00;99541.05;88519;273;22524;-74
2023/11/14 06:28:25;;;;;;;11.70;9.70;;;;;;;3.74;100.00;99541.85;88376;272;138023;-70
2023/11/14 06:30:27;;;;;;;9.80;8.80;;;;;;;3.76;100.00;99538.05;88483;273;25140;-71
2023/11/14 06:32:29;;;;;;;13.10;9.30;;;;;;;3.78;100.00;99534.29;88377;273;136165;-71
2023/11/14 06:34:31;;;;;;;10.30;8.90;;;;;;;3.81;100.00;99538.05;88436;277;25168;-74
2023/11/14 06:36:33;;;;;;;9.70;8.70;;;;;;;3.81;100.00;99531.16;88310;277;136632;-71
2023/11/14 06:38:36;;;;;;;11.60;8.90;;;;;;;3.83;100.00;99527.69;88494;272;23494;-70
2023/11/14 06:40:39;;;;;;;10.70;9.00;;;;;;;3.66;100.00;99503.76;88444;273;136337;-74
2023/11/14 06:42:43;;;;;;;12.10;9.00;;;;;;;3.82;100.00;99523.69;88509;281;22612;-73
2023/11/14 06:44:45;;;;;;;11.20;8.40;;;;;;;3.87;100.00;99519.63;88298;273;136327;-71
2023/11/14 06:46:48;;;;;;;10.40;8.40;;;;;;;3.89;100.00;99517.80;89444;273;22540;-75
2023/11/14 06:48:50;;;;;;;11.30;8.30;;;;;;;3.92;100.00;99512.12;89415;273;136576;-78
2023/11/14 06:50:52;;;;;;;11.70;7.40;;;;;;;3.93;100.00;99508.70;89123;276;23100;-80
2023/11/14 06:52:54;;;;;;;8.90;7.90;;;;;;;3.94;100.00;99502.71;88776;279;137058;-79
2023/11/14 06:54:56;;;;;;;8.50;7.40;;;;;;;3.96;100.00;99500.20;89088;274;25811;-72
2023/11/14 06:56:59;;;;;;;10.80;8.50;;;;;;;3.99;100.00;99495.50;88601;272;136212;-74
2023/11/14 06:59:01;;;;;;;8.90;7.90;;;;;;;3.91;100.00;99479.63;88983;271;22529;-71
2023/11/14 07:01:05;;;;;;;9.80;7.80;;;;;;;4.02;100.00;99495.64;88882;278;136125;-84
2023/11/14 07:03:08;;;;;;;9.60;8.60;;;;;;;4.04;100.00;99495.44;89409;273;22540;-74
2023/11/14 07:05:10;;;;;;;12.30;8.70;;;;;;;4.06;100.00;99496.09;88689;277;137747;-76
2023/11/14 07:07:12;;;;;;;10.60;8.30;;;;;;;4.11;100.00;99495.63;88671;275;22529;-75
2023/11/14 07:09:15;;;;;;;10.60;8.20;;;;;;;4.14;100.00;99493.95;88846;274;136442;-74
2023/11/14 07:11:17;;;;;;;12.10;9.20;;;;;;;4.15;100.00;99494.26;88935;273;22528;-77
2023/11/14 07:13:20;;;;;;;9.90;7.80;;;;;;;4.18;100.00;99489.73;88887;272;136328;-77
2023/11/14 07:15:23;;;;;;;9.00;8.10;;;;;;;4.21;100.00;99487.33;89503;272;25076;-75
2023/11/14 07:17:25;;;;;;;10.20;8.20;;;;;;;4.24;100.00;99479.70;89704;276;136225;-76
2023/11/14 07:19:27;;;;;;;10.90;8.60;;;;;;;4.21;100.00;99467.05;89333;279;22679;-80
2023/11/14 07:21:32;;;;;;;11.10;8.50;;;;;;;4.32;100.00;99481.05;89085;273;136222;-80
2023/11/14 07:23:35;;;;;;;8.40;7.50;;;;;;;4.37;100.00;99475.69;88979;280;26111;-78
2023/11/14 07:25:42;;;;;;;8.60;6.60;;;;;;;4.39;100.00;99474.92;89024;272;137079;-74
2023/11/14 07:27:46;;;;;;;9.80;7.50;;;;;;;4.40;100.00;99471.16;90285;280;22543;-76
2023/11/14 07:29:51;;;;;;;11.10;9.20;;;;;;;4.41;100.00;99462.29;89565;279;137193;-76
2023/11/14 07:31:53;;;;;;;10.40;8.20;;;;;;;4.43;100.00;99465.55;89040;272;23327;-76
2023/11/14 07:33:55;;;;;;;12.90;8.80;;;;;;;4.46;100.00;99461.66;88956;277;136474;-74
2023/11/14 07:35:57;;;;;;;11.30;8.60;;;;;;;4.47;100.00;99458.23;89007;277;25160;-78
2023/11/14 07:38:01;;;;;;;7.80;7.00;;;;;;;4.48;100.00;99443.37;88977;276;136342;-76
2023/11/14 07:40:06;;;;;;;9.70;8.70;;;;;;;4.39;100.00;99428.45;88880;276;24093;-77
2023/11/14 07:42:08;;;;;;;10.20;7.90;;;;;;;4.49;100.00;99442.00;88940;281;22778;-77
2023/11/14 07:44:10;;;;;;;9.10;7.40;;;;;;;4.49;100.00;99438.27;88779;273;138104;-79
2023/11/14 07:46:12;;;;;;;9.20;7.40;;;;;;;4.51;100.00;99429.30;88820;273;22602;-75
2023/11/14 07:48:14;;;;;;;11.40;8.00;;;;;;;4.53;100.00;99419.42;88996;277;136490;-80
2023/11/14 07:50:16;;;;;;;11.80;8.80;;;;;;;4.49;100.00;99399.84;89130;271;23281;-82
2023/11/14 07:52:18;;;;;;;12.90;8.60;;;;;;;4.59;100.00;99406.93;88960;279;137681;-76
2023/11/14 07:54:20;;;;;;;13.40;9.00;;;;;;;4.62;100.00;99399.02;88973;272;25115;-80
2023/11/14 07:56:24;;;;;;;12.30;8.50;;;;;;;4.65;100.00;99397.39;88748;273;137211;-78
2023/11/14 07:58:26;;;;;;;14.60;8.00;;;;;;;4.70;100.00;99394.80;88917;279;22533;-73
2023/11/14 08:00:30;;;;;;;10.30;8.40;;;;;;;4.73;100.00;99384.21;88875;272;136048;-72
2023/11/14 08:02:32;;;;;;;10.50;7.20;;;;;;;4.74;100.00;99382.53;89109;271;22558;-82
2023/11/14 08:04:35;;;;;;;10.90;7.20;;;;;;;4.79;100.00;99374.45;89016;277;136571;-82
2023/11/14 08:06:38;;;;;;;11.50;8.90;;;;;;;4.83;100.00;99375.02;89086;273;25299;-70
2023/11/14 08:08:42;;;;;;;11.50;8.30;;;;;;;4.87;100.00;99375.95;90023;273;136603;-77
2023/11/14 08:10:44;;;;;;;11.60;8.10;;;;;;;4.91;100.00;99376.62;89991;280;22821;-75
2023/11/14 08:12:46;;;;;;;7.70;6.80;;;;;;;5.00;100.00;99371.34;89336;280;137511;-76
2023/11/14 08:14:49;;;;;;;8.50;7.50;;;;;;;5.08;100.00;99377.09;89295;280;22534;-79
2023/11/14 08:16:51;;;;;;;14.30;8.70;;;;;;;5.11;100.00;99380.84;89065;280;137475;-76
2023/11/14 08:18:53;;;;;;;10.20;7.70;;;;;;;5.13;100.00;99375.65;89150;273;24338;-74
2023/11/14 08:20:56;;;;;;;10.90;7.90;;;;;;;5.16;100.00;99385.20;89094;280;138018;-78
2023/11/14 08:22:59;;;;;;;8.60;7.70;;;;;;;5.20;100.00;99387.75;89158;280;22526;-75
2023/11/14 08:25:01;;;;;;;10.70;7.60;;;;;;;5.21;100.00;99393.38;90178;277;136964;-77
2023/11/14 08:27:04;;;;;;;12.90;7.90;;;;;;;5.24;100.00;99397.95;88754;277;24058;-76
2023/11/14 08:29:06;;;;;;;11.30;7.70;;;;;;;5.26;100.00;99400.54;88783;277;136664;-74
2023/11/14 08:31:08;;;;;;;10.80;8.10;;;;;;;5.23;100.00;99389.53;88893;280;23652;-75
2023/11/14 08:33:10;;;;;;;8.10;7.00;;;;;;;5.34;100.00;99414.81;88815;280;137689;-75
2023/11/14 08:35:13;;;;;;;13.90;8.20;;;;;;;5.39;100.00;99415.80;88996;273;25230;-73
2023/11/14 08:37:15;;;;;;;13.40;8.40;;;;;;;5.44;100.00;99419.27;88853;277;137493;-77
2023/11/14 08:39:25;;;;;;;9.20;7.50;;;;;;;5.50;100.00;99412.94;89055;280;22530;-75
2023/11/14 08:41:30;;;;;;;7.90;7.10;;;;;;;5.56;100.00;99413.02;88935;273;137332;-74
2023/11/14 08:43:34;;;;;;;8.90;7.30;;;;;;;5.60;100.00;99414.10;88899;280;22534;-73
2023/11/14 08:45:37;;;;;;;10.60;7.40;;;;;;;5.63;100.00;99409.13;88566;274;136515;-72
2023/11/14 08:47:39;;;;;;;9.90;6.40;;;;;;;5.69;100.00;99399.78;88867;274;24055;-69
2023/11/14 08:49:41;;;;;;;7.20;6.40;;;;;;;5.73;100.00;99394.27;88636;276;136894;-70
2023/11/14 08:51:43;;;;;;;6.60;5.90;;;;;;;5.79;100.00;99386.58;88583;280;22805;-67
2023/11/14 08:53:45;;;;;;;8.10;5.70;;;;;;;5.82;100.00;99376.41;88563;273;136493;-71
2023/11/14 08:55:47;;;;;;;11.20;7.50;;;;;;;5.85;100.00;99372.72;88693;277;22540;-72
2023/11/14 08:57:49;;;;;;;8.00;5.10;;;;;;;5.90;100.00;99364.65;88499;280;136771;-70
2023/11/14 08:59:51;;;;;;;5.30;4.80;;;;;;;5.94;100.00;99352.50;88526;273;25550;-70
2023/11/14 09:01:53;;;;;;;5.90;5.30;;;;;;;5.98;100.00;99341.80;88484;279;137581;-72
2023/11/14 09:03:56;;;;;;;6.30;5.00;;;;;;;6.03;100.00;99335.56;88566;281;24131;-75
2023/11/14 09:05:58;;;;;;;7.80;5.40;;;;;;;6.04;100.00;99329.59;88713;280;137738;-71
2023/11/14 09:08:00;;;;;;;6.60;5.00;;;;;;;6.16;100.00;99338.65;88580;280;24208;-69
2023/11/14 09:10:04;;;;;;;7.30;5.30;;;;;;;6.21;100.00;99329.28;88508;281;22554;-70
2023/11/14 09:12:06;;;;;;;8.30;5.50;;;;;;;6.26;100.00;99324.94;88615;273;136386;-83
2023/11/14 09:14:08;;;;;;;7.30;4.90;;;;;;;6.29;100.00;99318.05;88748;281;22527;-75
2023/11/14 09:16:11;;;;;;;9.90;5.60;;;;;;;6.30;100.00;99311.84;88866;272;136599;-74
2023/11/14 09:18:14;;;;;;;6.20;4.60;;;;;;;6.32;100.00;99297.69;88983;276;22534;-71
2023/11/14 09:20:18;;;;;;;5.00;4.50;;;;;;;6.29;100.00;99303.35;88700;280;136794;-73
2023/11/14 09:22:20;;;;;;;5.70;5.00;;;;;;;6.35;100.00;99318.30;89034;280;24289;-70
2023/11/14 09:24:23;;;;;;;5.30;4.80;;;;;;;6.36;100.00;99320.29;88834;272;136869;-74
2023/11/14 09:26:25;;;;;;;6.10;5.10;;;;;;;6.37;100.00;99324.14;88578;277;25168;-75
2023/11/14 09:28:27;;;;;;;8.70;4.80;;;;;;;6.39;100.00;99330.77;88574;280;137027;-74
2023/11/14 09:30:29;;;;;;;8.30;5.60;;;;;;;6.42;100.00;99333.65;88659;280;24029;-78
2023/11/14 09:32:31;;;;;;;7.70;5.50;;;;;;;6.44;100.00;99331.38;88848;280;136781;-73
2023/11/14 09:34:33;;;;;;;6.60;4.90;;;;;;;6.45;100.00;99329.84;88510;277;25067;-77
2023/11/14 09:36:35;;;;;;;7.00;5.30;;;;;;;6.46;100.00;99321.07;88566;279;136394;-76